createdAt,value
2024-05-09T00:02:15.970Z,10.44
2024-05-09T00:04:46.578Z,9.76
2024-05-09T00:07:17.159Z,10.29
2024-05-09T00:09:48.030Z,9.96
2024-05-09T00:12:21.317Z,9.84
2024-05-09T00:14:51.650Z,10.13
2024-05-09T00:17:22.139Z,9.99
2024-05-09T00:19:52.671Z,9.57
2024-05-09T00:22:23.110Z,9.94
2024-05-09T00:24:53.492Z,9.98
2024-05-09T00:27:26.577Z,10.15
2024-05-09T00:29:57.044Z,10.17
2024-05-09T00:32:27.613Z,10.18
2024-05-09T00:34:58.172Z,10.02
2024-05-09T00:37:28.653Z,10.13
2024-05-09T00:39:59.065Z,10.16
2024-05-09T00:42:32.225Z,9.94
2024-05-09T00:45:02.576Z,9.99
2024-05-09T00:47:33.546Z,9.77
2024-05-09T00:50:09.769Z,9.51
2024-05-09T00:52:43.496Z,9.57
2024-05-09T00:55:13.960Z,9.87
2024-05-09T00:57:47.958Z,9.55
2024-05-09T01:00:26.810Z,9.52
2024-05-09T01:03:02.792Z,9.37
2024-05-09T01:05:34.927Z,9.17
2024-05-09T01:08:06.113Z,9.00
2024-05-09T01:10:36.875Z,8.94
2024-05-09T01:13:10.324Z,8.98
2024-05-09T01:15:40.597Z,9.26
2024-05-09T01:18:13.875Z,9.21
2024-05-09T01:20:45.642Z,8.96
2024-05-09T01:23:18.988Z,9.21
2024-05-09T01:25:49.662Z,8.94
2024-05-09T01:28:20.186Z,8.86
2024-05-09T01:30:50.648Z,9.21
2024-05-09T01:33:21.220Z,9.26
2024-05-09T01:35:51.774Z,8.99
2024-05-09T01:38:24.948Z,8.89
2024-05-09T01:40:55.493Z,9.00
2024-05-09T01:43:26.039Z,8.99
2024-05-09T01:45:56.486Z,8.80
2024-05-09T01:48:27.076Z,8.97
2024-05-09T01:50:57.626Z,9.02
2024-05-09T01:53:30.871Z,9.00
2024-05-09T01:56:01.318Z,9.03
2024-05-09T01:58:33.053Z,8.95
2024-05-09T02:01:03.650Z,8.96
2024-05-09T02:03:34.197Z,8.88
2024-05-09T02:06:04.935Z,8.64
2024-05-09T02:08:38.230Z,8.59
2024-05-09T02:11:08.988Z,8.69
2024-05-09T02:13:39.429Z,8.68
2024-05-09T02:16:14.066Z,8.45
2024-05-09T02:18:44.655Z,8.39
2024-05-09T02:21:15.465Z,8.66
2024-05-09T02:23:48.499Z,8.48
2024-05-09T02:26:19.049Z,8.47
2024-05-09T02:28:49.526Z,8.49
2024-05-09T02:31:20.115Z,8.47
2024-05-09T02:33:48.224Z,8.44
2024-05-09T02:36:18.886Z,8.28
2024-05-09T02:38:49.292Z,8.20
2024-05-09T02:41:19.773Z,7.87
2024-05-09T02:43:47.626Z,8.09
2024-05-09T02:46:17.996Z,7.93
2024-05-09T02:48:46.021Z,7.99
2024-05-09T02:51:16.471Z,7.91
2024-05-09T02:53:44.295Z,7.93
2024-05-09T02:56:17.422Z,8.02
2024-05-09T02:58:45.320Z,8.05
2024-05-09T03:01:15.833Z,8.08
2024-05-09T03:03:45.489Z,8.11
2024-05-09T03:06:15.971Z,8.09
2024-05-09T03:08:45.125Z,8.10
2024-05-09T03:11:26.479Z,7.98
2024-05-09T03:13:55.124Z,7.97
2024-05-09T03:16:25.658Z,7.98
2024-05-09T03:18:54.769Z,7.96
2024-05-09T03:21:25.467Z,7.99
2024-05-09T03:23:53.362Z,7.98
2024-05-09T03:26:26.943Z,7.91
2024-05-09T03:28:54.848Z,7.84
2024-05-09T03:31:25.321Z,7.86
2024-05-09T03:33:53.314Z,7.94
2024-05-09T03:36:23.908Z,7.80
2024-05-09T03:38:54.291Z,7.65
2024-05-09T03:41:27.470Z,7.66
2024-05-09T03:43:58.050Z,7.63
2024-05-09T03:46:28.540Z,7.52
2024-05-09T03:48:57.440Z,7.68
2024-05-09T03:51:27.843Z,7.48
2024-05-09T03:53:55.641Z,7.48
2024-05-09T03:56:28.681Z,7.45
2024-05-09T03:58:57.506Z,7.53
2024-05-09T04:01:30.046Z,7.66
2024-05-09T04:03:58.159Z,7.36
2024-05-09T04:06:29.442Z,7.65
2024-05-09T04:08:57.352Z,7.67
2024-05-09T04:11:30.589Z,7.94
2024-05-09T04:13:58.304Z,8.20
2024-05-09T04:16:28.769Z,7.83
2024-05-09T04:18:56.772Z,8.10
2024-05-09T04:21:27.203Z,7.99
2024-05-09T04:23:55.114Z,7.74
2024-05-09T04:26:25.655Z,7.78
2024-05-09T04:28:56.165Z,7.80
2024-05-09T04:31:26.624Z,7.82
2024-05-09T04:33:54.583Z,7.91
2024-05-09T04:36:25.096Z,8.05
2024-05-09T04:38:52.899Z,8.42
2024-05-09T04:41:23.656Z,8.54
2024-05-09T04:43:51.735Z,8.59
2024-05-09T04:46:24.763Z,8.73
2024-05-09T04:48:53.679Z,8.74
2024-05-09T04:51:24.192Z,8.71
2024-05-09T04:53:52.073Z,8.65
2024-05-09T04:56:22.563Z,8.81
2024-05-09T04:58:50.487Z,8.86
2024-05-09T05:01:21.068Z,8.88
2024-05-09T05:03:51.727Z,8.97
2024-05-09T05:06:22.672Z,9.03
2024-05-09T05:08:50.549Z,9.16
2024-05-09T05:11:21.142Z,9.27
2024-05-09T05:13:49.154Z,9.29
2024-05-09T05:16:19.565Z,9.39
2024-05-09T05:18:47.469Z,9.60
2024-05-09T05:21:20.806Z,9.74
2024-05-09T05:23:48.603Z,9.69
2024-05-09T05:26:20.574Z,9.70
2024-05-09T05:28:48.519Z,9.93
2024-05-09T05:31:19.026Z,10.08
2024-05-09T05:33:48.643Z,10.00
2024-05-09T05:36:21.934Z,9.84
2024-05-09T05:38:49.917Z,9.95
2024-05-09T05:41:20.385Z,10.31
2024-05-09T05:43:48.282Z,10.20
2024-05-09T05:46:18.698Z,10.37
2024-05-09T05:48:46.613Z,10.59
2024-05-09T05:51:17.272Z,10.67
2024-05-09T05:53:47.927Z,10.65
2024-05-09T05:56:18.472Z,11.05
2024-05-09T05:58:46.374Z,11.35
2024-05-09T06:01:16.936Z,11.68
2024-05-09T06:03:44.969Z,11.65
2024-05-09T06:06:16.432Z,11.80
2024-05-09T06:08:44.407Z,12.11
2024-05-09T06:11:17.605Z,12.63
2024-05-09T06:13:45.429Z,12.63
2024-05-09T06:16:15.980Z,12.76
2024-05-09T06:18:43.894Z,12.94
2024-05-09T06:21:14.741Z,12.99
2024-05-09T06:23:46.109Z,13.43
2024-05-09T06:26:19.528Z,13.25
2024-05-09T06:28:47.105Z,13.56
2024-05-09T06:31:17.481Z,13.59
2024-05-09T06:33:45.395Z,13.87
2024-05-09T06:36:16.209Z,13.86
2024-05-09T06:38:44.223Z,14.28
2024-05-09T06:41:14.664Z,14.47
2024-05-09T06:43:45.151Z,14.66
2024-05-09T06:46:15.701Z,14.74
2024-05-09T06:48:43.746Z,14.71
2024-05-09T06:51:14.284Z,14.88
2024-05-09T06:53:42.262Z,15.47
2024-05-09T06:56:12.913Z,15.89
2024-05-09T06:58:40.853Z,16.14
2024-05-09T07:01:13.942Z,16.35
2024-05-09T07:03:41.977Z,16.64
2024-05-09T07:06:12.565Z,16.89
2024-05-09T07:08:41.337Z,17.19
2024-05-09T07:11:11.970Z,17.03
2024-05-09T07:13:39.863Z,17.70
2024-05-09T07:16:13.069Z,17.91
2024-05-09T07:18:41.199Z,18.24
2024-05-09T07:21:11.819Z,18.36
2024-05-09T07:23:42.490Z,18.84
2024-05-09T07:26:14.278Z,19.06
2024-05-09T07:28:42.839Z,19.31
2024-05-09T07:31:16.501Z,19.61
2024-05-09T07:33:44.502Z,19.81
2024-05-09T07:36:15.029Z,20.04
2024-05-09T07:38:45.590Z,20.28
2024-05-09T07:41:14.499Z,20.50
2024-05-09T07:43:45.180Z,20.78
2024-05-09T07:47:14.401Z,21.05
2024-05-09T07:54:13.401Z,22.01
2024-05-09T07:56:44.206Z,22.20
2024-05-09T07:59:12.255Z,22.45
2024-05-09T08:01:45.504Z,22.90
2024-05-09T08:04:13.551Z,23.34
2024-05-09T08:06:44.140Z,23.44
2024-05-09T08:09:16.769Z,23.46
2024-05-09T08:11:49.988Z,23.98
2024-05-09T08:14:17.921Z,24.24
2024-05-09T08:16:50.906Z,24.42
2024-05-09T08:19:18.909Z,24.66
2024-05-09T08:21:49.451Z,24.70
2024-05-09T08:24:17.190Z,25.32
2024-05-09T08:26:47.640Z,25.54
2024-05-09T08:29:15.559Z,25.77
2024-05-09T08:31:46.106Z,26.05
2024-05-09T08:34:17.020Z,25.97
2024-05-09T08:36:47.730Z,26.02
2024-05-09T08:39:15.771Z,26.25
2024-05-09T08:41:52.358Z,26.62
2024-05-09T08:44:21.218Z,26.94
2024-05-09T08:46:54.498Z,27.40
2024-05-09T08:49:26.476Z,27.75
2024-05-09T08:51:57.263Z,28.18
2024-05-09T08:54:25.222Z,28.72
2024-05-09T08:56:55.957Z,29.11
2024-05-09T08:59:34.047Z,29.22
2024-05-09T09:02:05.395Z,29.43
2024-05-09T09:04:40.536Z,29.58
2024-05-09T09:07:11.093Z,29.80
2024-05-09T09:09:43.657Z,29.84
2024-05-09T09:12:15.090Z,29.97
2024-05-09T09:14:42.903Z,29.79
2024-05-09T09:17:17.189Z,29.74
2024-05-09T09:19:47.780Z,29.64
2024-05-09T09:22:19.830Z,29.59
2024-05-09T09:24:47.708Z,29.68
2024-05-09T09:27:18.486Z,29.97
2024-05-09T09:29:46.234Z,30.27
2024-05-09T09:32:16.654Z,30.53
2024-05-09T09:34:44.745Z,30.63
2024-05-09T09:37:23.797Z,30.49
2024-05-09T09:39:51.967Z,30.39
2024-05-09T09:42:26.080Z,30.36
2024-05-09T09:45:03.791Z,30.23
2024-05-09T09:47:39.932Z,29.95
2024-05-09T09:50:14.283Z,29.45
2024-05-09T09:52:51.804Z,29.26
2024-05-09T09:55:22.012Z,28.92
2024-05-09T09:57:52.643Z,28.70
2024-05-09T10:00:27.272Z,28.70
2024-05-09T10:03:03.073Z,28.77
2024-05-09T10:05:33.833Z,29.00
2024-05-09T10:08:09.431Z,29.44
2024-05-09T10:10:37.413Z,29.67
2024-05-09T10:13:09.034Z,30.03
2024-05-09T10:15:45.460Z,30.47
2024-05-09T10:18:16.516Z,30.70
2024-05-09T10:20:45.407Z,30.67
2024-05-09T10:23:29.243Z,30.32
2024-05-09T10:25:58.295Z,30.03
2024-05-09T10:28:29.758Z,29.77
2024-05-09T10:31:07.804Z,29.44
2024-05-09T10:33:40.050Z,29.25
2024-05-09T10:36:14.352Z,29.06
2024-05-09T10:38:47.652Z,28.73
2024-05-09T10:41:16.814Z,28.76
2024-05-09T10:43:47.720Z,29.14
2024-05-09T10:46:16.501Z,29.16
2024-05-09T10:48:48.620Z,29.03
2024-05-09T10:51:18.725Z,28.88
2024-05-09T10:53:52.692Z,28.99
2024-05-09T10:56:20.548Z,28.62
2024-05-09T10:58:54.781Z,28.37
2024-05-09T11:01:22.944Z,28.07
2024-05-09T11:03:55.041Z,27.73
2024-05-09T11:06:23.423Z,27.61
2024-05-09T11:08:56.705Z,27.42
2024-05-09T11:11:25.190Z,27.31
2024-05-09T11:13:55.612Z,26.90
2024-05-09T11:16:24.560Z,26.42
2024-05-09T11:18:59.084Z,25.81
2024-05-09T11:21:27.338Z,25.45
2024-05-09T11:24:00.450Z,25.19
2024-05-09T11:26:29.689Z,24.62
2024-05-09T11:29:00.196Z,24.30
2024-05-09T11:31:28.212Z,24.20
2024-05-09T11:33:58.705Z,24.00
2024-05-09T11:36:26.578Z,24.11
2024-05-09T11:38:57.128Z,24.00
2024-05-09T11:41:27.602Z,23.93
2024-05-09T11:43:58.088Z,23.85
2024-05-09T11:46:26.056Z,23.75
2024-05-09T11:48:56.784Z,23.82
2024-05-09T11:51:24.581Z,24.03
2024-05-09T11:53:55.133Z,24.28
2024-05-09T11:56:23.133Z,24.05
2024-05-09T11:58:56.391Z,24.31
2024-05-09T12:01:27.555Z,24.34
2024-05-09T12:03:58.782Z,24.60
2024-05-09T12:06:26.928Z,24.65
2024-05-09T12:08:57.642Z,25.09
2024-05-09T12:11:25.564Z,25.33
2024-05-09T12:13:58.661Z,25.49
2024-05-09T12:16:26.775Z,25.61
2024-05-09T12:18:57.488Z,25.68
2024-05-09T12:21:25.342Z,25.95
2024-05-09T12:23:55.978Z,26.12
2024-05-09T12:26:23.909Z,26.45
2024-05-09T12:28:54.463Z,26.54
2024-05-09T12:31:25.088Z,26.66
2024-05-09T12:33:55.985Z,26.64
2024-05-09T12:36:23.936Z,26.86
2024-05-09T12:38:54.416Z,27.00
2024-05-09T12:41:22.200Z,27.34
2024-05-09T12:43:52.603Z,27.58
2024-05-09T12:46:20.622Z,27.63
2024-05-09T12:48:54.063Z,27.45
2024-05-09T12:51:22.130Z,27.21
2024-05-09T12:53:52.576Z,27.03
2024-05-09T12:56:20.547Z,26.78
2024-05-09T12:58:51.272Z,26.76
2024-05-09T13:01:19.127Z,26.62
2024-05-09T13:03:49.855Z,26.64
2024-05-09T13:06:20.623Z,26.32
2024-05-09T13:08:51.172Z,26.40
2024-05-09T13:11:19.226Z,26.35
2024-05-09T13:13:49.656Z,26.14
2024-05-09T13:16:17.700Z,25.92
2024-05-09T13:18:48.411Z,25.71
2024-05-09T13:21:16.362Z,25.49
2024-05-09T13:23:49.496Z,25.26
2024-05-09T13:26:17.544Z,25.09
2024-05-09T13:28:47.950Z,24.87
2024-05-09T13:31:15.818Z,24.78
2024-05-09T13:33:46.660Z,24.58
2024-05-09T13:36:14.636Z,24.23
2024-05-09T13:38:45.256Z,23.82
2024-05-09T13:41:15.764Z,23.56
2024-05-09T13:43:46.260Z,23.35
2024-05-09T13:46:14.235Z,23.02
2024-05-09T13:48:44.995Z,22.83
2024-05-09T13:51:12.866Z,22.89
2024-05-09T13:53:43.404Z,23.16
2024-05-09T13:56:12.820Z,23.39
2024-05-09T13:58:46.692Z,23.81
2024-05-09T14:01:14.691Z,24.12
2024-05-09T14:03:45.311Z,24.39
2024-05-09T14:06:13.436Z,24.57
2024-05-09T14:08:44.149Z,24.72
2024-05-09T14:11:13.118Z,24.85
2024-05-09T14:13:46.255Z,24.94
2024-05-09T14:16:14.489Z,24.92
2024-05-09T14:18:45.267Z,24.97
2024-05-09T14:21:13.219Z,25.03
2024-05-09T14:23:43.650Z,25.15
2024-05-09T14:26:11.721Z,25.29
2024-05-09T14:28:42.235Z,25.52
2024-05-09T14:31:12.913Z,25.61
2024-05-09T14:33:43.537Z,25.60
2024-05-09T14:36:12.098Z,25.69
2024-05-09T14:38:42.706Z,25.66
2024-05-09T14:41:13.249Z,25.97
2024-05-09T14:43:43.715Z,26.24
2024-05-09T14:46:14.383Z,26.35
2024-05-09T14:48:45.434Z,26.66
2024-05-09T14:51:13.684Z,26.85
2024-05-09T14:53:44.148Z,26.82
2024-05-09T14:56:12.156Z,27.30
2024-05-09T14:58:42.727Z,27.29
2024-05-09T15:01:10.557Z,27.33
2024-05-09T15:03:43.928Z,27.39
2024-05-09T15:06:12.186Z,27.60
2024-05-09T15:08:42.707Z,27.56
2024-05-09T15:11:10.715Z,27.47
2024-05-09T15:13:41.261Z,27.49
2024-05-09T15:16:09.212Z,27.44
2024-05-09T15:18:42.216Z,27.69
2024-05-09T15:21:14.178Z,27.56
2024-05-09T15:23:45.005Z,27.63
2024-05-09T15:26:13.072Z,27.88
2024-05-09T15:28:43.942Z,27.79
2024-05-09T15:31:11.779Z,27.58
2024-05-09T15:33:42.769Z,27.69
2024-05-09T15:36:13.545Z,27.73
2024-05-09T15:38:44.025Z,27.55
2024-05-09T15:41:13.279Z,27.39
2024-05-09T15:43:43.779Z,27.34
2024-05-09T15:46:11.883Z,27.06
2024-05-09T15:48:44.821Z,27.04
2024-05-09T15:51:15.593Z,26.98
2024-05-09T15:53:46.078Z,26.82
2024-05-09T15:56:13.997Z,26.61
2024-05-09T15:58:44.549Z,26.59
2024-05-09T16:01:14.487Z,26.65
2024-05-09T16:03:45.188Z,26.58
2024-05-09T16:06:16.234Z,26.53
2024-05-09T16:08:46.667Z,26.78
2024-05-09T16:11:17.054Z,26.84
2024-05-09T16:13:47.830Z,26.84
2024-05-09T16:16:16.011Z,26.92
2024-05-09T16:18:46.601Z,26.80
2024-05-09T16:21:17.088Z,26.65
2024-05-09T16:23:47.653Z,26.50
2024-05-09T16:26:15.610Z,26.22
2024-05-09T16:28:46.171Z,26.08
2024-05-09T16:31:14.213Z,25.85
2024-05-09T16:33:45.261Z,25.82
2024-05-09T16:36:13.440Z,25.60
2024-05-09T16:38:46.595Z,25.38
2024-05-09T16:41:15.574Z,25.07
2024-05-09T16:43:46.015Z,24.84
2024-05-09T16:46:14.528Z,24.33
2024-05-09T16:48:45.726Z,24.21
2024-05-09T16:51:13.795Z,24.17
2024-05-09T16:53:46.891Z,24.20
2024-05-09T16:56:14.864Z,24.04
2024-05-09T16:58:45.666Z,23.84
2024-05-09T17:01:13.665Z,23.43
2024-05-09T17:03:44.363Z,23.31
2024-05-09T17:06:12.398Z,23.11
2024-05-09T17:08:43.785Z,23.09
2024-05-09T17:11:15.572Z,22.90
2024-05-09T17:13:48.216Z,22.82
2024-05-09T17:16:18.872Z,22.61
2024-05-09T17:18:50.549Z,22.72
2024-05-09T17:21:18.918Z,22.75
2024-05-09T17:23:51.317Z,22.74
2024-05-09T17:26:22.030Z,22.62
2024-05-09T17:28:52.553Z,22.42
2024-05-09T17:31:20.439Z,22.21
2024-05-09T17:33:51.141Z,22.01
2024-05-09T17:36:19.946Z,21.87
2024-05-09T17:38:50.415Z,21.84
2024-05-09T17:41:18.276Z,21.65
2024-05-09T17:43:51.394Z,21.56
2024-05-09T17:46:19.450Z,21.37
2024-05-09T17:48:50.005Z,21.19
2024-05-09T17:51:17.841Z,21.10
2024-05-09T17:53:48.412Z,20.89
2024-05-09T17:56:16.323Z,21.03
2024-05-09T17:58:48.981Z,20.75
2024-05-09T18:01:19.734Z,20.58
2024-05-09T18:03:50.777Z,20.40
2024-05-09T18:06:18.822Z,20.30
2024-05-09T18:08:49.361Z,20.24
2024-05-09T18:11:17.636Z,20.05
2024-05-09T18:13:48.423Z,20.18
2024-05-09T18:16:19.277Z,19.97
2024-05-09T18:18:50.364Z,20.12
2024-05-09T18:21:18.283Z,19.97
2024-05-09T18:23:52.088Z,19.96
2024-05-09T18:26:20.152Z,19.41
2024-05-09T18:28:50.642Z,19.31
2024-05-09T18:31:21.184Z,19.45
2024-05-09T18:33:51.921Z,19.66
2024-05-09T18:36:20.308Z,19.42
2024-05-09T18:38:50.970Z,19.65
2024-05-09T18:41:20.488Z,19.36
2024-05-09T18:43:51.318Z,19.26
2024-05-09T18:46:21.836Z,18.91
2024-05-09T18:48:52.470Z,18.83
2024-05-09T18:51:21.237Z,18.57
2024-05-09T18:53:52.441Z,18.59
2024-05-09T18:56:20.216Z,18.60
2024-05-09T18:58:50.783Z,18.54
2024-05-09T19:01:18.733Z,18.50
2024-05-09T19:03:51.950Z,18.30
2024-05-09T19:06:22.771Z,18.03
2024-05-09T19:08:55.034Z,17.86
2024-05-09T19:11:22.890Z,17.74
2024-05-09T19:13:53.425Z,17.69
2024-05-09T19:16:21.481Z,17.67
2024-05-09T19:18:55.705Z,17.67
2024-05-09T19:21:23.673Z,17.65
2024-05-09T19:23:55.545Z,17.68
2024-05-09T19:26:23.622Z,17.51
2024-05-09T19:28:55.414Z,17.42
2024-05-09T19:31:23.505Z,17.32
2024-05-09T19:33:56.719Z,17.20
2024-05-09T19:36:24.571Z,17.07
2024-05-09T19:38:54.998Z,16.97
2024-05-09T19:41:23.009Z,16.83
2024-05-09T19:43:53.449Z,16.91
2024-05-09T19:46:21.397Z,16.95
2024-05-09T19:48:52.170Z,16.92
2024-05-09T19:51:22.694Z,17.01
2024-05-09T19:53:55.130Z,16.79
2024-05-09T19:56:23.053Z,16.83
2024-05-09T19:58:54.162Z,16.74
2024-05-09T20:01:22.025Z,16.62
2024-05-09T20:03:53.124Z,16.43
2024-05-09T20:06:26.259Z,16.36
2024-05-09T20:08:58.288Z,16.04
2024-05-09T20:11:26.628Z,15.88
2024-05-09T20:13:58.497Z,15.76
2024-05-09T20:16:26.377Z,15.62
2024-05-09T20:18:57.149Z,15.54
2024-05-09T20:21:27.721Z,15.51
2024-05-09T20:23:58.156Z,15.25
2024-05-09T20:26:28.115Z,15.17
2024-05-09T20:28:59.682Z,15.08
2024-05-09T20:31:27.601Z,15.04
2024-05-09T20:33:58.310Z,15.07
2024-05-09T20:36:28.763Z,15.03
2024-05-09T20:38:59.198Z,14.99
2024-05-09T20:41:27.703Z,14.95
2024-05-09T20:44:00.649Z,14.83
2024-05-09T20:46:28.625Z,14.24
2024-05-09T20:48:59.253Z,14.21
2024-05-09T20:51:30.547Z,14.38
2024-05-09T20:54:01.008Z,14.44
2024-05-09T20:56:28.812Z,14.52
2024-05-09T20:59:00.099Z,14.65
2024-05-09T21:01:27.954Z,13.96
2024-05-09T21:03:58.594Z,13.66
2024-05-09T21:06:26.455Z,13.53
2024-05-09T21:08:59.857Z,13.36
2024-05-09T21:11:27.641Z,13.18
2024-05-09T21:13:58.098Z,13.20
2024-05-09T21:16:26.014Z,13.63
2024-05-09T21:18:56.588Z,13.61
2024-05-09T21:21:24.465Z,13.63
2024-05-09T21:23:54.862Z,13.28
2024-05-09T21:26:25.639Z,13.38
2024-05-09T21:28:56.036Z,13.40
2024-05-09T21:31:23.903Z,13.27
2024-05-09T21:33:54.707Z,13.00
2024-05-09T21:36:22.757Z,13.05
2024-05-09T21:38:53.140Z,13.10
2024-05-09T21:41:21.393Z,13.04
2024-05-09T21:43:54.511Z,13.02
2024-05-09T21:46:22.412Z,12.87
2024-05-09T21:48:52.987Z,12.93
2024-05-09T21:51:20.863Z,12.98
2024-05-09T21:53:51.588Z,12.65
2024-05-09T21:56:19.372Z,12.86
2024-05-09T21:58:49.852Z,12.32
2024-05-09T22:01:20.390Z,12.58
2024-05-09T22:03:51.122Z,12.27
2024-05-09T22:06:19.120Z,12.63
2024-05-09T22:08:49.559Z,12.67
2024-05-09T22:11:17.387Z,12.53
2024-05-09T22:13:47.733Z,12.25
2024-05-09T22:16:15.556Z,12.35
2024-05-09T22:18:49.250Z,12.33
2024-05-09T22:21:17.231Z,12.21
2024-05-09T22:23:47.644Z,12.23
2024-05-09T22:26:15.497Z,12.27
2024-05-09T22:28:46.539Z,12.28
2024-05-09T22:31:14.408Z,12.32
2024-05-09T22:33:47.124Z,12.23
2024-05-09T22:36:18.392Z,12.25
2024-05-09T22:38:48.838Z,12.21
2024-05-09T22:41:16.660Z,12.07
2024-05-09T22:43:47.098Z,12.06
2024-05-09T22:46:17.661Z,12.08
2024-05-09T22:48:45.566Z,12.21
2024-05-09T22:51:16.217Z,12.22
2024-05-09T22:53:46.950Z,12.24
2024-05-09T22:56:17.871Z,12.21
2024-05-09T22:58:45.847Z,12.26
2024-05-09T23:01:17.739Z,12.26
2024-05-09T23:03:45.887Z,11.96
2024-05-09T23:06:16.439Z,11.90
2024-05-09T23:08:46.932Z,11.98
2024-05-09T23:11:17.806Z,11.89
2024-05-09T23:13:45.890Z,11.76
2024-05-09T23:16:16.477Z,11.65
2024-05-09T23:18:44.406Z,11.47
2024-05-09T23:21:15.016Z,11.58
2024-05-09T23:23:42.800Z,11.57
2024-05-09T23:26:15.975Z,11.62
2024-05-09T23:28:43.919Z,11.59
2024-05-09T23:31:14.407Z,11.51
2024-05-09T23:33:45.793Z,11.48
2024-05-09T23:36:16.630Z,11.46
2024-05-09T23:38:44.548Z,11.34
2024-05-09T23:41:17.543Z,11.42
2024-05-09T23:43:45.379Z,11.42
2024-05-09T23:46:15.910Z,11.35
2024-05-09T23:48:43.953Z,11.35
2024-05-09T23:51:14.404Z,11.33
2024-05-09T23:53:44.931Z,11.25
2024-05-09T23:56:21.553Z,11.25
2024-05-09T23:58:49.398Z,11.21
